Time;durP1;ratioP1;P1;durP2;ratioP2;P2;SDS_P1;SDS_P2;PMS_P1;PMS_P2;Temp;Humidity;BMP_temperature;BMP_pressure;BME280_temperature;BME280_humidity;BME280_pressure;Samples;Min_cycle;Max_cycle;Signal;HPM_P1;HPM_P2
2023/03/16 00:01:20;;;;;;;22.10;19.77;;;0.80;99.90;;;;;;5812064;24;20212;-79
2023/03/16 00:03:48;;;;;;;21.95;19.83;;;0.80;99.90;;;;;;5812922;24;20299;-79
2023/03/16 00:06:16;;;;;;;25.20;21.63;;;0.80;99.90;;;;;;5802987;24;20204;-79
2023/03/16 00:08:43;;;;;;;23.92;20.92;;;0.80;99.90;;;;;;5810125;24;20241;-79
2023/03/16 00:11:11;;;;;;;27.25;24.30;;;0.90;99.90;;;;;;5791138;24;20256;-79
2023/03/16 00:13:38;;;;;;;24.80;21.40;;;0.90;99.90;;;;;;5810865;24;20203;-80
2023/03/16 00:16:06;;;;;;;24.08;21.48;;;0.90;99.90;;;;;;5813671;24;20200;-79
2023/03/16 00:18:37;;;;;;;29.73;24.73;;;0.90;99.90;;;;;;5797024;24;20310;-79
2023/03/16 00:21:06;;;;;;;28.50;25.13;;;0.90;99.90;;;;;;5808644;24;20199;-79
2023/03/16 00:23:35;;;;;;;24.67;22.20;;;0.90;99.90;;;;;;5817895;24;20206;-79
2023/03/16 00:26:04;;;;;;;24.60;22.20;;;0.90;99.90;;;;;;5807002;24;20202;-79
2023/03/16 00:28:34;;;;;;;27.20;24.35;;;0.90;99.90;;;;;;5806465;24;20236;-79
2023/03/16 00:31:01;;;;;;;23.52;21.05;;;0.90;99.90;;;;;;5811273;24;20271;-79
2023/03/16 00:33:28;;;;;;;24.35;21.85;;;0.90;99.90;;;;;;5812644;24;21166;-79
2023/03/16 00:36:02;;;;;;;26.90;22.85;;;0.90;99.90;;;;;;5814058;24;20803;-79
2023/03/16 00:38:33;;;;;;;25.95;21.75;;;0.80;99.90;;;;;;5801575;24;20697;-79
2023/03/16 00:41:02;;;;;;;26.48;22.67;;;0.90;99.90;;;;;;5795386;24;20206;-79
2023/03/16 00:43:30;;;;;;;28.33;22.95;;;0.90;99.90;;;;;;5808168;24;20274;-79
2023/03/16 00:46:00;;;;;;;28.48;25.35;;;0.90;99.90;;;;;;5807455;24;20199;-79
2023/03/16 00:48:26;;;;;;;25.70;22.13;;;0.90;99.90;;;;;;5806649;24;20239;-79
2023/03/16 00:50:54;;;;;;;24.35;20.98;;;0.80;99.90;;;;;;5802725;24;20706;-80
2023/03/16 00:53:21;;;;;;;27.85;23.90;;;0.80;99.90;;;;;;5812085;24;20282;-79
2023/03/16 00:55:52;;;;;;;24.60;22.08;;;0.80;99.90;;;;;;5821942;24;20421;-80
2023/03/16 00:58:19;;;;;;;24.80;22.10;;;0.70;99.90;;;;;;5831521;24;20235;-79
2023/03/16 01:00:52;;;;;;;24.50;21.85;;;0.70;99.90;;;;;;5813476;24;20200;-79
2023/03/16 01:03:19;;;;;;;26.33;22.52;;;0.70;99.90;;;;;;5805846;24;20608;-79
2023/03/16 01:05:46;;;;;;;28.02;23.60;;;0.70;99.90;;;;;;5809637;24;20266;-79
2023/03/16 01:08:13;;;;;;;27.48;24.50;;;0.70;99.90;;;;;;5807627;24;20287;-79
2023/03/16 01:10:40;;;;;;;27.45;24.55;;;0.70;99.90;;;;;;5813016;24;20278;-79
2023/03/16 01:13:08;;;;;;;26.30;23.42;;;0.60;99.90;;;;;;5806765;24;20223;-80
2023/03/16 01:15:35;;;;;;;29.67;24.55;;;0.60;99.90;;;;;;5814548;24;20292;-79
2023/03/16 01:18:03;;;;;;;25.08;22.35;;;0.60;99.90;;;;;;5794688;24;20695;-79
2023/03/16 01:20:32;;;;;;;28.83;24.10;;;0.50;99.90;;;;;;5823386;24;20277;-80
2023/03/16 01:22:59;;;;;;;24.73;22.15;;;0.50;99.90;;;;;;5798013;24;20205;-78
2023/03/16 01:25:26;;;;;;;25.83;23.02;;;0.50;99.90;;;;;;5814021;24;20250;-79
2023/03/16 01:27:53;;;;;;;28.92;25.73;;;0.40;99.90;;;;;;5799030;24;20231;-79
2023/03/16 01:30:21;;;;;;;27.13;24.25;;;0.40;99.90;;;;;;5791338;24;20202;-79
2023/03/16 01:32:48;;;;;;;30.80;26.20;;;0.40;99.90;;;;;;5809930;24;20265;-79
2023/03/16 01:35:15;;;;;;;35.45;27.13;;;0.40;99.90;;;;;;5813255;24;20191;-80
2023/03/16 01:37:42;;;;;;;25.77;22.85;;;0.40;99.90;;;;;;5802167;24;20245;-79
2023/03/16 01:40:11;;;;;;;27.23;24.27;;;0.40;99.90;;;;;;5795856;24;20200;-79
2023/03/16 01:42:49;;;;;;;28.58;24.60;;;0.40;99.90;;;;;;5807348;24;20210;-79
2023/03/16 01:45:54;;;;;;;33.60;28.27;;;0.40;99.90;;;;;;5813888;24;20195;-79
2023/03/16 01:48:25;;;;;;;28.00;24.92;;;0.40;99.90;;;;;;5793747;24;20305;-79
2023/03/16 01:50:53;;;;;;;32.00;26.33;;;0.40;99.90;;;;;;5806108;24;20230;-79
2023/03/16 01:53:23;;;;;;;26.17;23.10;;;0.40;99.90;;;;;;5814437;24;20206;-79
2023/03/16 01:55:50;;;;;;;27.42;24.17;;;0.40;99.90;;;;;;5795281;24;20248;-80
2023/03/16 01:58:18;;;;;;;26.33;23.42;;;0.30;99.90;;;;;;5789089;24;20215;-79
2023/03/16 02:00:45;;;;;;;31.48;25.00;;;0.30;99.90;;;;;;5799100;24;20204;-80
2023/03/16 02:03:15;;;;;;;29.05;24.25;;;0.20;99.90;;;;;;5812472;24;20563;-80
2023/03/16 02:05:48;;;;;;;28.95;24.60;;;0.20;99.90;;;;;;5813086;24;20206;-79
2023/03/16 02:08:17;;;;;;;27.48;22.95;;;0.20;99.90;;;;;;5809717;24;20265;-79
2023/03/16 02:10:45;;;;;;;36.92;26.75;;;0.10;99.90;;;;;;5809879;24;20274;-79
2023/03/16 02:13:12;;;;;;;30.08;23.80;;;0.00;99.90;;;;;;5812583;24;20620;-80
2023/03/16 02:15:40;;;;;;;35.22;27.40;;;0.10;99.90;;;;;;5793834;24;20556;-79
2023/03/16 02:18:08;;;;;;;34.30;24.05;;;0.10;99.90;;;;;;5811721;24;20218;-79
2023/03/16 02:20:41;;;;;;;83.05;26.70;;;0.20;99.90;;;;;;5800788;24;20278;-79
2023/03/16 02:23:17;;;;;;;46.70;22.25;;;0.00;99.90;;;;;;5806490;24;20267;-79
2023/03/16 02:25:53;;;;;;;45.75;23.50;;;0.00;99.90;;;;;;5808930;24;20698;-79
2023/03/16 02:28:28;;;;;;;55.50;25.27;;;0.00;99.90;;;;;;5797732;24;20242;-79
2023/03/16 02:30:57;;;;;;;46.45;24.42;;;0.00;99.90;;;;;;5817080;24;20205;-79
2023/03/16 02:33:25;;;;;;;31.40;24.02;;;0.00;99.90;;;;;;5810234;24;20288;-79
2023/03/16 02:35:52;;;;;;;35.47;24.27;;;0.00;99.90;;;;;;5804773;24;20195;-79
2023/03/16 02:38:18;;;;;;;37.13;25.63;;;0.00;99.90;;;;;;5803920;24;20298;-79
2023/03/16 02:40:57;;;;;;;32.10;25.17;;;0.00;99.90;;;;;;5812469;24;20287;-79
2023/03/16 02:43:27;;;;;;;30.75;24.52;;;0.00;99.90;;;;;;5812131;24;20195;-79
2023/03/16 02:45:59;;;;;;;31.55;24.50;;;0.00;99.90;;;;;;5809761;24;20196;-79
2023/03/16 02:48:31;;;;;;;30.25;24.05;;;0.00;99.90;;;;;;5806956;24;20330;-79
2023/03/16 02:50:58;;;;;;;28.13;23.08;;;0.00;99.90;;;;;;5793764;24;20290;-79
2023/03/16 02:53:25;;;;;;;27.98;23.00;;;-0.10;99.90;;;;;;5813986;24;20230;-79
2023/03/16 02:55:52;;;;;;;46.20;25.77;;;-0.20;99.90;;;;;;5807497;24;20223;-79
2023/03/16 02:58:20;;;;;;;31.30;24.13;;;-0.20;99.90;;;;;;5800107;24;20889;-79
2023/03/16 03:00:47;;;;;;;37.55;23.35;;;-0.20;99.90;;;;;;5793076;24;20199;-79
2023/03/16 03:03:15;;;;;;;28.10;22.42;;;-0.30;99.90;;;;;;5813624;24;20716;-79
2023/03/16 03:05:42;;;;;;;29.35;23.23;;;-0.30;99.90;;;;;;5789846;24;20237;-79
2023/03/16 03:08:09;;;;;;;31.20;26.20;;;-0.30;99.90;;;;;;5803679;24;20313;-79
2023/03/16 03:10:36;;;;;;;25.05;22.40;;;-0.40;99.90;;;;;;5810199;24;20234;-79
2023/03/16 03:13:06;;;;;;;28.73;24.90;;;-0.40;99.90;;;;;;5809485;24;20695;-79
2023/03/16 03:15:33;;;;;;;28.73;25.08;;;-0.40;99.90;;;;;;5801305;24;20195;-79
2023/03/16 03:18:00;;;;;;;26.48;23.20;;;-0.30;99.90;;;;;;5808106;24;20219;-79
2023/03/16 03:20:29;;;;;;;27.98;24.45;;;-0.30;99.90;;;;;;5794062;24;20538;-78
2023/03/16 03:22:55;;;;;;;28.48;23.45;;;-0.20;99.90;;;;;;5806038;24;20200;-79
2023/03/16 03:25:23;;;;;;;31.13;25.98;;;-0.20;99.90;;;;;;5814481;24;20724;-79
2023/03/16 03:27:53;;;;;;;30.02;24.52;;;-0.10;99.90;;;;;;5808421;24;20235;-79
2023/03/16 03:30:23;;;;;;;25.55;22.45;;;-0.10;99.90;;;;;;5825745;24;20199;-79
2023/03/16 03:32:51;;;;;;;28.98;23.65;;;-0.10;99.90;;;;;;5803769;24;20302;-79
2023/03/16 03:35:18;;;;;;;26.05;22.17;;;-0.10;99.90;;;;;;5806434;24;20199;-79
2023/03/16 03:37:47;;;;;;;31.27;24.63;;;-0.10;99.90;;;;;;5796389;24;20249;-79
2023/03/16 03:40:16;;;;;;;26.00;22.42;;;-0.10;99.90;;;;;;5808367;24;20278;-79
2023/03/16 03:42:43;;;;;;;28.25;25.25;;;0.00;99.90;;;;;;5804337;24;20536;-78
2023/03/16 03:45:12;;;;;;;30.42;24.35;;;0.00;99.90;;;;;;5796172;24;20219;-79
2023/03/16 03:47:40;;;;;;;31.95;24.83;;;0.00;99.90;;;;;;5795799;24;20221;-78
2023/03/16 03:50:08;;;;;;;30.70;22.50;;;0.00;99.90;;;;;;5812044;24;20202;-79
2023/03/16 03:52:35;;;;;;;25.48;21.55;;;0.00;99.90;;;;;;5801277;24;20374;-79
2023/03/16 03:55:05;;;;;;;29.10;23.95;;;-0.10;99.90;;;;;;5798550;24;20682;-79
2023/03/16 03:57:32;;;;;;;25.85;21.55;;;-0.10;99.90;;;;;;5804943;24;20714;-79
2023/03/16 03:59:59;;;;;;;25.92;22.33;;;-0.20;99.90;;;;;;5805336;24;20228;-79
2023/03/16 04:02:26;;;;;;;24.90;22.23;;;-0.10;99.90;;;;;;5793372;24;20327;-79
2023/03/16 04:04:53;;;;;;;27.17;21.98;;;-0.10;99.90;;;;;;5794125;24;20224;-78
2023/03/16 04:07:20;;;;;;;25.17;22.45;;;-0.10;99.90;;;;;;5793265;24;20228;-79
2023/03/16 04:09:47;;;;;;;27.00;21.88;;;-0.10;99.90;;;;;;5797152;24;20277;-78
2023/03/16 04:12:16;;;;;;;24.80;20.67;;;-0.10;99.90;;;;;;5809300;24;20664;-79
2023/03/16 04:14:42;;;;;;;28.63;22.75;;;-0.10;99.90;;;;;;5806743;24;20199;-79
2023/03/16 04:17:11;;;;;;;27.23;22.20;;;-0.10;99.90;;;;;;5807910;24;20258;-79
2023/03/16 04:19:38;;;;;;;25.08;21.40;;;-0.10;99.90;;;;;;5814264;24;20219;-79
2023/03/16 04:22:06;;;;;;;24.67;21.63;;;-0.10;99.90;;;;;;5810647;24;20203;-79
2023/03/16 04:24:34;;;;;;;25.02;21.02;;;-0.10;99.90;;;;;;5807239;24;20266;-79
2023/03/16 04:27:02;;;;;;;26.70;21.77;;;-0.10;99.90;;;;;;5803980;24;20199;-79
2023/03/16 04:29:30;;;;;;;24.30;20.88;;;-0.10;99.90;;;;;;5790615;24;20290;-78
2023/03/16 04:31:58;;;;;;;25.55;22.10;;;-0.10;99.90;;;;;;5797186;24;20279;-78
2023/03/16 04:34:24;;;;;;;25.45;21.58;;;-0.10;99.90;;;;;;5799722;24;20203;-78
2023/03/16 04:36:52;;;;;;;23.40;20.33;;;-0.20;99.90;;;;;;5789927;24;20219;-79
2023/03/16 04:39:19;;;;;;;24.10;20.90;;;-0.20;99.90;;;;;;5797776;24;20642;-79
2023/03/16 04:41:46;;;;;;;27.67;22.40;;;-0.20;99.90;;;;;;5805587;24;20213;-79
2023/03/16 04:44:13;;;;;;;26.05;21.92;;;-0.20;99.90;;;;;;5808764;24;20303;-79
2023/03/16 04:46:42;;;;;;;24.88;21.33;;;-0.20;99.90;;;;;;5798084;24;20632;-78
2023/03/16 04:49:09;;;;;;;25.00;21.25;;;-0.20;99.90;;;;;;5806886;24;20223;-78
2023/03/16 04:51:36;;;;;;;26.10;21.98;;;-0.20;99.90;;;;;;5811952;24;20230;-78
2023/03/16 04:54:04;;;;;;;24.73;21.58;;;-0.20;99.90;;;;;;5800172;24;20200;-78
2023/03/16 04:56:31;;;;;;;24.65;20.35;;;-0.20;99.90;;;;;;5801977;24;20291;-78
2023/03/16 04:58:58;;;;;;;23.17;20.25;;;-0.10;99.90;;;;;;5801291;24;20350;-79
2023/03/16 05:01:25;;;;;;;21.10;18.77;;;-0.20;99.90;;;;;;5811338;24;20292;-78
2023/03/16 05:03:53;;;;;;;28.05;22.85;;;-0.10;99.90;;;;;;5805912;24;20195;-77
2023/03/16 05:06:20;;;;;;;23.80;20.23;;;-0.10;99.90;;;;;;5809955;24;20565;-79
2023/03/16 05:08:47;;;;;;;24.20;20.65;;;-0.10;99.90;;;;;;5814926;24;20313;-79
2023/03/16 05:11:14;;;;;;;24.50;21.05;;;-0.10;99.90;;;;;;5798057;24;20203;-78
2023/03/16 05:13:41;;;;;;;21.90;19.13;;;-0.10;99.90;;;;;;5800103;24;20241;-78
2023/03/16 05:16:09;;;;;;;23.80;21.02;;;-0.10;99.90;;;;;;5800315;24;20234;-78
2023/03/16 05:18:35;;;;;;;22.90;19.88;;;-0.10;99.90;;;;;;5796034;24;20230;-77
2023/03/16 05:21:05;;;;;;;22.92;20.45;;;-0.10;99.90;;;;;;5814162;24;20194;-78
2023/03/16 05:23:32;;;;;;;20.98;18.73;;;0.00;99.90;;;;;;5801481;24;20282;-75
2023/03/16 05:25:59;;;;;;;26.15;21.67;;;0.00;99.90;;;;;;5802224;24;20684;-78
2023/03/16 05:28:27;;;;;;;27.05;20.92;;;-0.10;99.90;;;;;;5807405;24;20699;-78
2023/03/16 05:30:55;;;;;;;25.13;19.80;;;-0.10;99.90;;;;;;5805550;24;20195;-77
2023/03/16 05:33:22;;;;;;;25.98;20.83;;;-0.10;99.90;;;;;;5807693;24;20225;-77
2023/03/16 05:35:50;;;;;;;27.60;22.13;;;-0.10;99.90;;;;;;5797915;24;20234;-78
2023/03/16 05:38:18;;;;;;;24.30;20.35;;;-0.10;99.90;;;;;;5794502;24;20219;-79
2023/03/16 05:40:51;;;;;;;25.40;21.88;;;-0.10;99.90;;;;;;5794245;24;20238;-79
2023/03/16 05:43:19;;;;;;;23.83;20.42;;;-0.10;99.90;;;;;;5808353;24;20194;-79
2023/03/16 05:45:46;;;;;;;24.55;20.95;;;-0.10;99.90;;;;;;5805871;24;20199;-79
2023/03/16 05:48:13;;;;;;;29.10;22.25;;;-0.10;99.90;;;;;;5799381;24;20244;-79
2023/03/16 05:50:41;;;;;;;27.65;22.23;;;-0.10;99.90;;;;;;5800994;24;20583;-79
2023/03/16 05:53:08;;;;;;;24.80;20.75;;;-0.10;99.90;;;;;;5812131;24;20640;-79
2023/03/16 05:55:37;;;;;;;25.55;20.30;;;-0.10;99.90;;;;;;5809320;24;20548;-86
2023/03/16 05:58:04;;;;;;;25.20;21.42;;;-0.10;99.90;;;;;;5809928;24;20557;-80
2023/03/16 06:00:31;;;;;;;26.30;20.73;;;-0.10;99.90;;;;;;5791150;24;20321;-80
2023/03/16 06:02:58;;;;;;;26.60;21.42;;;-0.10;99.90;;;;;;5807612;24;20263;-80
2023/03/16 06:05:27;;;;;;;23.77;20.20;;;-0.10;99.90;;;;;;5806021;24;20194;-80
2023/03/16 06:07:54;;;;;;;25.38;21.48;;;-0.10;99.90;;;;;;5806050;24;20211;-80
2023/03/16 06:10:21;;;;;;;23.23;20.65;;;-0.10;99.90;;;;;;5809133;24;20215;-80
2023/03/16 06:12:50;;;;;;;25.92;22.40;;;-0.10;99.90;;;;;;5799129;24;20223;-80
2023/03/16 06:15:17;;;;;;;22.40;18.42;;;0.00;99.90;;;;;;5808654;24;20322;-81
2023/03/16 06:17:44;;;;;;;27.27;20.25;;;0.00;99.90;;;;;;5802563;24;20222;-80
2023/03/16 06:20:13;;;;;;;25.25;19.67;;;0.00;99.90;;;;;;5808681;24;20195;-80
2023/03/16 06:22:42;;;;;;;22.60;19.92;;;0.00;99.90;;;;;;5809153;24;20195;-80
2023/03/16 06:25:11;;;;;;;25.98;19.60;;;0.00;99.90;;;;;;5809960;24;20278;-80
2023/03/16 06:27:38;;;;;;;25.30;19.63;;;0.10;99.90;;;;;;5810752;24;20217;-81
2023/03/16 06:30:09;;;;;;;24.77;21.10;;;0.20;99.90;;;;;;5806083;24;20220;-80
2023/03/16 06:32:36;;;;;;;21.85;18.77;;;0.20;99.90;;;;;;5792593;24;20269;-81
2023/03/16 06:35:04;;;;;;;20.90;17.48;;;0.40;99.90;;;;;;5808896;24;20223;-81
2023/03/16 06:37:31;;;;;;;21.70;18.95;;;0.40;99.90;;;;;;5804378;24;20254;-81
2023/03/16 06:39:58;;;;;;;19.60;17.10;;;0.50;99.90;;;;;;5807257;24;20199;-81
2023/03/16 06:42:26;;;;;;;21.55;18.27;;;0.60;99.90;;;;;;5788869;24;20192;-81
2023/03/16 06:44:53;;;;;;;20.83;17.27;;;0.70;99.90;;;;;;5801355;24;20211;-81
2023/03/16 06:47:21;;;;;;;19.23;17.08;;;0.80;99.90;;;;;;5799464;24;20219;-82
2023/03/16 06:49:50;;;;;;;18.27;16.38;;;0.90;99.90;;;;;;5799706;24;20305;-79
2023/03/16 06:52:17;;;;;;;21.65;17.40;;;1.00;99.90;;;;;;5792623;24;20203;-82
2023/03/16 06:54:44;;;;;;;19.30;16.77;;;1.00;99.90;;;;;;5796781;24;20195;-82
2023/03/16 06:57:12;;;;;;;18.88;16.88;;;1.20;99.90;;;;;;5790424;24;20251;-82
2023/03/16 06:59:40;;;;;;;20.77;17.10;;;1.00;99.90;;;;;;5810305;24;20593;-81
2023/03/16 07:02:07;;;;;;;21.13;17.60;;;1.00;99.90;;;;;;5802472;24;20274;-81
2023/03/16 07:04:35;;;;;;;19.70;16.73;;;1.20;99.90;;;;;;5801732;24;21274;-81
2023/03/16 07:07:02;;;;;;;20.00;17.40;;;1.00;99.90;;;;;;5790558;24;20241;-81
2023/03/16 07:09:30;;;;;;;19.83;16.80;;;1.00;99.90;;;;;;5789801;24;20672;-81
2023/03/16 07:11:57;;;;;;;19.52;17.42;;;1.10;99.90;;;;;;5804609;24;20588;-82
2023/03/16 07:14:25;;;;;;;18.20;16.23;;;1.20;99.90;;;;;;5789890;24;20200;-81
2023/03/16 07:16:52;;;;;;;17.75;15.80;;;1.30;99.90;;;;;;5798705;24;20257;-81
2023/03/16 07:19:21;;;;;;;18.63;16.63;;;1.50;99.90;;;;;;5813660;24;20192;-81
2023/03/16 07:21:50;;;;;;;18.35;15.43;;;1.60;99.90;;;;;;5790835;24;20198;-81
2023/03/16 07:24:17;;;;;;;19.50;15.10;;;1.80;99.90;;;;;;5801943;24;20668;-81
2023/03/16 07:26:45;;;;;;;17.67;15.77;;;1.90;99.90;;;;;;5800451;24;20248;-81
2023/03/16 07:29:13;;;;;;;17.65;15.23;;;2.10;99.90;;;;;;5788145;24;20232;-81
2023/03/16 07:31:40;;;;;;;16.23;14.32;;;2.20;99.90;;;;;;5795575;24;20669;-81
2023/03/16 07:34:07;;;;;;;16.20;14.60;;;2.40;99.90;;;;;;5800698;24;20236;-82
2023/03/16 07:36:34;;;;;;;16.58;14.10;;;2.50;99.90;;;;;;5794064;24;20646;-82
2023/03/16 07:39:03;;;;;;;16.75;14.95;;;2.60;99.90;;;;;;5805339;24;20866;-82
2023/03/16 07:41:30;;;;;;;14.88;13.27;;;2.70;99.90;;;;;;5810393;24;20187;-82
2023/03/16 07:43:58;;;;;;;15.45;13.80;;;2.60;99.90;;;;;;5808354;24;20199;-81
2023/03/16 07:46:24;;;;;;;19.15;13.10;;;2.50;99.90;;;;;;5811074;24;20643;-81
2023/03/16 07:48:52;;;;;;;15.00;13.50;;;2.50;99.90;;;;;;5814207;24;20196;-81
2023/03/16 07:51:19;;;;;;;17.48;15.00;;;2.60;99.90;;;;;;5798367;24;20677;-81
2023/03/16 07:53:45;;;;;;;15.07;13.50;;;2.60;99.90;;;;;;5804868;24;20197;-80
2023/03/16 07:56:14;;;;;;;14.05;12.50;;;2.80;99.90;;;;;;5805580;24;20225;-81
2023/03/16 07:58:41;;;;;;;13.70;12.35;;;3.20;99.90;;;;;;5809959;24;20194;-80
2023/03/16 08:01:09;;;;;;;14.38;13.07;;;3.40;99.90;;;;;;5795081;24;20191;-80
2023/03/16 08:03:37;;;;;;;13.18;11.77;;;3.70;99.90;;;;;;5795818;24;20224;-80
2023/03/16 08:06:05;;;;;;;13.40;12.05;;;4.00;99.90;;;;;;5804128;24;20563;-80
2023/03/16 08:08:32;;;;;;;12.88;11.20;;;4.40;99.90;;;;;;5814404;24;20222;-79
2023/03/16 08:10:59;;;;;;;12.65;11.45;;;4.80;99.90;;;;;;5808957;24;20687;-80
2023/03/16 08:13:29;;;;;;;13.05;11.95;;;5.10;99.90;;;;;;5798212;24;20196;-80
2023/03/16 08:16:00;;;;;;;12.82;11.65;;;5.50;99.90;;;;;;5805407;24;20205;-80
2023/03/16 08:18:29;;;;;;;12.00;10.90;;;5.80;99.90;;;;;;5807739;24;20223;-80
2023/03/16 08:20:56;;;;;;;12.00;10.80;;;6.20;99.90;;;;;;5790688;24;20271;-80
2023/03/16 08:23:24;;;;;;;12.40;11.25;;;6.40;99.90;;;;;;5808503;24;20222;-80
2023/03/16 08:25:52;;;;;;;11.02;10.02;;;6.40;99.90;;;;;;5809906;24;20585;-80
2023/03/16 08:28:20;;;;;;;11.45;9.43;;;6.30;99.90;;;;;;5809854;24;20215;-80
2023/03/16 08:30:50;;;;;;;11.63;10.52;;;6.10;99.90;;;;;;5796597;24;20291;-80
2023/03/16 08:33:19;;;;;;;11.10;10.10;;;6.50;99.90;;;;;;5794558;24;20725;-80
2023/03/16 08:35:47;;;;;;;10.45;9.55;;;6.70;99.90;;;;;;5806265;24;20200;-80
2023/03/16 08:38:15;;;;;;;10.15;9.32;;;6.70;99.90;;;;;;5807983;24;20254;-80
2023/03/16 08:40:47;;;;;;;10.35;9.40;;;6.50;99.90;;;;;;5809432;24;20200;-80
2023/03/16 08:43:14;;;;;;;10.25;9.25;;;6.30;99.90;;;;;;5817212;24;20643;-80
2023/03/16 08:45:44;;;;;;;8.68;7.82;;;6.10;99.90;;;;;;5808773;24;20195;-80
2023/03/16 08:48:13;;;;;;;11.20;10.15;;;6.20;99.90;;;;;;5806257;24;20218;-81
2023/03/16 08:50:42;;;;;;;10.68;9.68;;;6.60;99.90;;;;;;5793923;24;20279;-80
2023/03/16 08:53:09;;;;;;;10.95;10.02;;;6.80;99.90;;;;;;5796449;24;20203;-80
2023/03/16 08:55:36;;;;;;;10.27;9.25;;;6.80;99.90;;;;;;5798570;24;20281;-82
2023/03/16 08:58:04;;;;;;;9.07;8.27;;;7.10;99.90;;;;;;5810967;24;20227;-77
2023/03/16 09:00:31;;;;;;;10.30;9.40;;;7.30;99.90;;;;;;5831141;24;20198;-80
2023/03/16 09:02:59;;;;;;;10.10;9.20;;;7.20;99.90;;;;;;5799575;24;20224;-78
2023/03/16 09:05:27;;;;;;;9.85;9.05;;;7.30;99.90;;;;;;5794533;24;20999;-78
2023/03/16 09:07:55;;;;;;;9.98;9.02;;;7.50;99.90;;;;;;5805702;24;20289;-78
2023/03/16 09:10:22;;;;;;;9.23;8.43;;;7.60;99.90;;;;;;5796037;24;20312;-77
2023/03/16 09:12:50;;;;;;;9.40;8.38;;;7.80;99.90;;;;;;5804641;24;20205;-80
2023/03/16 09:15:19;;;;;;;9.13;8.38;;;8.20;99.90;;;;;;5797239;24;20628;-79
2023/03/16 09:17:47;;;;;;;8.55;7.85;;;8.60;99.90;;;;;;5806558;24;20700;-79
2023/03/16 09:20:17;;;;;;;9.27;8.48;;;8.80;99.90;;;;;;5801672;24;20593;-79
2023/03/16 09:22:45;;;;;;;9.02;8.23;;;9.10;99.90;;;;;;5803731;24;20195;-80
2023/03/16 09:25:13;;;;;;;9.07;8.27;;;9.40;99.90;;;;;;5804668;24;20255;-80
2023/03/16 09:27:40;;;;;;;9.10;8.30;;;9.70;99.90;;;;;;5811122;24;20215;-79
2023/03/16 09:30:09;;;;;;;8.82;7.50;;;9.60;99.90;;;;;;5807498;24;20297;-79
2023/03/16 09:32:37;;;;;;;8.63;7.93;;;9.80;99.90;;;;;;5796918;24;20205;-79
2023/03/16 09:35:05;;;;;;;8.50;7.80;;;9.60;99.90;;;;;;5806532;24;20197;-79
2023/03/16 09:37:32;;;;;;;10.05;8.15;;;9.80;99.90;;;;;;5810996;24;20211;-79
2023/03/16 09:40:01;;;;;;;8.95;7.70;;;9.90;99.90;;;;;;5805813;24;20571;-79
2023/03/16 09:42:33;;;;;;;8.48;7.68;;;9.10;99.90;;;;;;5809396;24;20194;-79
2023/03/16 09:45:09;;;;;;;8.68;7.80;;;8.70;99.90;;;;;;5808229;24;20199;-80
2023/03/16 09:47:38;;;;;;;7.75;7.05;;;8.70;99.90;;;;;;5808368;24;20250;-79
2023/03/16 09:50:09;;;;;;;7.70;7.00;;;8.80;99.90;;;;;;5808042;24;20590;-79
2023/03/16 09:52:43;;;;;;;7.45;6.75;;;9.00;99.90;;;;;;5808919;24;20259;-79
2023/03/16 09:55:25;;;;;;;7.70;7.10;;;8.70;99.90;;;;;;5802540;24;20225;-79
2023/03/16 09:57:52;;;;;;;7.30;6.60;;;9.00;99.90;;;;;;5801348;24;20610;-79
2023/03/16 10:00:22;;;;;;;7.25;6.65;;;8.90;99.90;;;;;;5800557;24;20191;-79
2023/03/16 10:03:15;;;;;;;7.43;6.82;;;9.10;99.90;;;;;;5805419;24;20195;-79
2023/03/16 10:05:43;;;;;;;8.18;7.47;;;9.20;99.90;;;;;;5811806;24;20663;-80
2023/03/16 10:08:15;;;;;;;8.15;7.30;;;9.70;99.90;;;;;;5807672;24;20748;-80
2023/03/16 10:11:03;;;;;;;7.03;6.38;;;10.30;99.90;;;;;;5805983;24;20207;-80
2023/03/16 10:13:37;;;;;;;7.40;6.70;;;10.80;99.90;;;;;;5792708;24;20222;-80
2023/03/16 10:16:10;;;;;;;7.32;6.70;;;11.10;99.90;;;;;;5805566;24;20191;-80
2023/03/16 10:18:43;;;;;;;7.65;6.90;;;10.80;99.90;;;;;;5808879;24;20219;-80
2023/03/16 10:21:17;;;;;;;7.68;6.50;;;10.70;99.90;;;;;;5812017;24;20193;-80
2023/03/16 10:23:45;;;;;;;6.25;5.65;;;10.90;99.90;;;;;;5811086;24;20679;-80
2023/03/16 10:26:18;;;;;;;5.65;5.22;;;11.30;99.90;;;;;;5800194;24;20245;-80
2023/03/16 10:28:45;;;;;;;6.30;5.70;;;11.30;99.90;;;;;;5813469;24;20199;-80
2023/03/16 10:31:13;;;;;;;6.72;5.85;;;11.40;99.90;;;;;;5798133;24;20242;-79
2023/03/16 10:33:40;;;;;;;6.43;5.80;;;11.50;99.90;;;;;;5805345;24;20263;-80
2023/03/16 10:36:15;;;;;;;6.50;5.90;;;11.60;99.90;;;;;;5811044;24;20322;-79
2023/03/16 10:38:47;;;;;;;6.47;5.88;;;11.80;99.90;;;;;;5809645;24;20512;-79
2023/03/16 10:43:54;;;;;;;5.83;5.00;;;12.20;99.90;;;;;;4962883;24;20508;-82
2023/03/16 10:46:22;;;;;;;5.43;4.97;;;12.40;99.90;;;;;;4914008;29;20459;-81
2023/03/16 10:48:58;;;;;;;5.67;5.17;;;12.50;99.90;;;;;;4898960;29;21127;-82
2023/03/16 10:51:28;;;;;;;5.20;4.70;;;12.80;99.90;;;;;;4891114;29;20516;-81
2023/03/16 10:54:09;;;;;;;4.50;4.20;;;13.30;99.90;;;;;;4891783;29;20462;-81
2023/03/16 10:56:36;;;;;;;5.20;4.53;;;13.80;99.90;;;;;;4894336;29;20461;-79
2023/03/16 10:59:15;;;;;;;5.27;4.77;;;13.50;99.90;;;;;;4891156;29;20461;-79
2023/03/16 11:01:45;;;;;;;4.70;4.30;;;13.90;99.90;;;;;;4897762;29;20474;-79
2023/03/16 11:04:15;;;;;;;4.77;4.37;;;14.30;99.90;;;;;;4896694;29;20544;-79
2023/03/16 11:06:51;;;;;;;5.23;4.77;;;14.70;99.90;;;;;;4897007;29;20462;-79
2023/03/16 11:09:22;;;;;;;4.20;3.90;;;13.90;99.90;;;;;;4885761;29;20542;-79
2023/03/16 11:11:50;;;;;;;4.23;3.90;;;14.30;99.90;;;;;;4890404;29;20511;-80
2023/03/16 11:14:27;;;;;;;5.03;4.03;;;14.90;99.30;;;;;;4896257;29;20497;-80
2023/03/16 11:17:02;;;;;;;4.73;4.17;;;14.90;98.70;;;;;;4889927;29;20459;-83
2023/03/16 11:19:31;;;;;;;4.77;4.40;;;15.40;98.80;;;;;;4895643;29;20592;-81
2023/03/16 11:22:03;;;;;;;4.53;4.03;;;15.80;97.90;;;;;;4895455;29;20489;-81
2023/03/16 11:24:38;;;;;;;4.27;3.90;;;16.20;97.10;;;;;;4897191;29;20549;-81
2023/03/16 11:27:17;;;;;;;4.43;4.07;;;16.40;96.80;;;;;;4897745;29;20465;-81
2023/03/16 11:29:59;;;;;;;4.50;3.70;;;16.30;94.50;;;;;;4896099;29;20539;-80
2023/03/16 11:32:33;;;;;;;4.50;4.20;;;16.00;94.80;;;;;;4895162;29;21005;-81
2023/03/16 11:35:03;;;;;;;3.67;3.47;;;16.40;94.00;;;;;;4895839;29;20461;-81
2023/03/16 11:37:43;;;;;;;4.00;3.70;;;16.80;93.50;;;;;;4914999;29;20449;-82
2023/03/16 11:40:32;;;;;;;3.33;3.03;;;16.80;92.00;;;;;;4902176;29;20942;-81
2023/03/16 11:43:07;;;;;;;4.10;3.73;;;16.10;93.60;;;;;;4899466;29;20474;-80
2023/03/16 11:45:42;;;;;;;3.60;3.30;;;15.90;92.50;;;;;;4896608;29;20498;-80
2023/03/16 11:48:21;;;;;;;3.37;3.07;;;16.30;93.00;;;;;;4894714;29;20576;-81
2023/03/16 11:50:58;;;;;;;4.17;3.77;;;16.70;92.30;;;;;;4909823;29;20523;-81
2023/03/16 11:53:40;;;;;;;3.80;3.50;;;17.10;91.10;;;;;;4901451;29;20676;-81
2023/03/16 11:56:16;;;;;;;4.00;3.70;;;16.90;91.30;;;;;;4896090;29;20954;-81
2023/03/16 11:58:52;;;;;;;4.50;4.10;;;16.80;90.30;;;;;;4897683;29;20803;-81
2023/03/16 12:01:28;;;;;;;4.37;3.97;;;16.70;90.10;;;;;;4896027;29;20462;-81
2023/03/16 12:04:08;;;;;;;4.70;4.30;;;17.00;90.40;;;;;;4897595;29;20496;-81
2023/03/16 12:06:50;;;;;;;3.53;3.23;;;16.30;90.40;;;;;;4905650;29;20446;-80
2023/03/16 12:10:01;;;;;;;4.03;3.63;;;16.40;90.60;;;;;;4896797;29;20454;-80
2023/03/16 12:12:36;;;;;;;3.77;3.47;;;16.20;91.20;;;;;;4896717;29;20498;-81
2023/03/16 12:15:23;;;;;;;3.37;3.07;;;16.50;88.40;;;;;;4878180;29;20446;-81
2023/03/16 12:17:54;;;;;;;3.40;3.10;;;16.50;88.80;;;;;;4895506;29;20468;-81
2023/03/16 12:20:26;;;;;;;4.10;3.80;;;16.70;88.50;;;;;;4895082;29;20844;-80
2023/03/16 12:22:58;;;;;;;3.93;3.27;;;16.70;88.20;;;;;;4896638;29;20506;-81
2023/03/16 12:25:29;;;;;;;4.00;3.70;;;16.50;87.10;;;;;;4896324;29;20442;-80
2023/03/16 12:28:00;;;;;;;3.70;3.40;;;16.20;88.80;;;;;;4896588;29;20450;-80
2023/03/16 12:30:41;;;;;;;3.83;3.27;;;16.40;88.10;;;;;;4895892;29;20946;-81
2023/03/16 12:33:18;;;;;;;4.03;3.23;;;16.80;89.00;;;;;;4896290;29;20494;-81
2023/03/16 12:35:51;;;;;;;3.53;3.23;;;16.70;85.50;;;;;;4894984;29;20969;-81
2023/03/16 12:38:29;;;;;;;3.50;3.20;;;16.50;87.20;;;;;;4896045;29;20465;-80
2023/03/16 12:41:08;;;;;;;3.57;3.27;;;16.40;85.70;;;;;;4896298;29;20460;-81
2023/03/16 12:43:51;;;;;;;3.23;2.97;;;16.30;86.00;;;;;;4894414;29;20556;-81
2023/03/16 12:46:29;;;;;;;3.17;2.90;;;16.30;86.70;;;;;;4886697;29;20557;-81
2023/03/16 12:49:00;;;;;;;3.63;3.17;;;16.30;86.20;;;;;;4874454;29;20477;-80
2023/03/16 12:51:35;;;;;;;3.20;3.00;;;16.10;88.00;;;;;;4892366;29;20525;-80
2023/03/16 12:54:04;;;;;;;3.03;2.80;;;16.00;84.60;;;;;;4885981;29;20457;-80